Time;durP1;ratioP1;P1;durP2;ratioP2;P2;SDS_P1;SDS_P2;PMS_P1;PMS_P2;Temp;Humidity;BMP_temperature;BMP_pressure;BME280_temperature;BME280_humidity;BME280_pressure;Samples;Min_cycle;Max_cycle;Signal;HPM_P1;HPM_P2
2023/10/18 04:01:26;;;;;;;;;;;6.60;99.90;;;;;;5471058;23;19926;-62
2023/10/18 04:03:52;;;;;;;;;;;6.60;99.90;;;;;;4978110;28;19929;-63
2023/10/18 04:06:28;;;;;;;;;;;6.60;99.90;;;;;;4976658;28;20292;-63
2023/10/18 04:08:58;;;;;;;;;;;6.60;99.90;;;;;;4977575;28;19914;-64
2023/10/18 04:11:26;;;;;;;;;;;6.60;99.90;;;;;;4977365;28;19910;-63
2023/10/18 04:13:52;;;;;;;;;;;6.50;99.90;;;;;;5008297;23;19927;-64
2023/10/18 04:16:18;;;;;;;;;;;6.50;99.90;;;;;;4976033;28;19918;-65
2023/10/18 04:18:43;;;;;;;;;;;6.50;99.90;;;;;;4977135;28;19910;-65
2023/10/18 04:21:15;;;;;;;;;;;6.50;99.90;;;;;;4977018;28;20391;-65
2023/10/18 04:23:45;;;;;;;;;;;6.50;99.90;;;;;;4976022;28;20404;-66
2023/10/18 04:26:18;;;;;;;;;;;6.50;99.90;;;;;;4977753;28;19957;-66
2023/10/18 04:28:45;;;;;;;;;;;6.50;99.90;;;;;;4975608;28;19917;-65
2023/10/18 04:31:11;;;;;;;;;;;6.50;99.90;;;;;;4975875;28;19910;-66
2023/10/18 04:33:49;;;;;;;;;;;6.60;99.90;;;;;;4977179;28;19910;-66
2023/10/18 04:36:20;;;;;;;;;;;6.60;99.90;;;;;;4979718;28;20332;-65
2023/10/18 04:38:46;;;;;;;;;;;6.60;99.90;;;;;;4981272;28;20288;-64
2023/10/18 04:41:23;;;;;;;;;;;6.60;99.90;;;;;;4978636;28;20350;-65
2023/10/18 04:43:53;;;;;;;;;;;6.70;99.90;;;;;;4977246;28;20380;-64
2023/10/18 04:46:25;;;;;;;;;;;6.70;99.90;;;;;;4977006;28;19925;-64
2023/10/18 04:51:27;;;;;;;;;;;6.60;99.90;;;;;;4977125;28;19960;-64
2023/10/18 04:54:00;;;;;;;;;;;6.60;99.90;;;;;;4976859;28;20040;-64
2023/10/18 04:56:33;;;;;;;;;;;6.60;99.90;;;;;;4976520;28;19929;-65
2023/10/18 04:59:11;;;;;;;;;;;6.50;99.90;;;;;;4976696;28;19914;-64
2023/10/18 05:01:56;;;;;;;;;;;6.60;99.90;;;;;;4977229;28;19969;-66
2023/10/18 05:04:24;;;;;;;;;;;6.50;99.90;;;;;;4976338;28;19923;-64
2023/10/18 05:06:56;;;;;;;;;;;6.50;99.90;;;;;;4975224;28;19954;-65
2023/10/18 05:09:41;;;;;;;;;;;6.50;99.90;;;;;;4976151;28;19910;-64
2023/10/18 05:12:28;;;;;;;;;;;6.50;99.90;;;;;;4969278;28;19996;-65
2023/10/18 05:17:43;;;;;;;;;;;6.40;99.90;;;;;;4957179;28;19918;-65
2023/10/18 05:22:41;;;;;;;;;;;6.40;99.90;;;;;;4959003;28;19919;-64
2023/10/18 05:28:00;;;;;;;;;;;6.50;99.90;;;;;;4956719;28;20021;-66
2023/10/18 05:31:20;;;;;;;;;;;6.50;99.90;;;;;;4956551;28;19917;-65
2023/10/18 05:33:47;;;;;;;;;;;6.50;99.90;;;;;;4956503;28;20034;-64
2023/10/18 05:41:36;;;;;;;;;;;6.60;99.90;;;;;;4956949;28;19911;-67
2023/10/18 05:44:01;;;;;;;;;;;6.70;99.90;;;;;;4963065;28;19914;-67
2023/10/18 05:46:27;;;;;;;;;;;6.70;99.90;;;;;;4977521;28;19911;-64
2023/10/18 05:48:55;;;;;;;;;;;6.80;99.90;;;;;;4975757;28;19917;-65
2023/10/18 05:53:57;;;;;;;;;;;6.80;99.90;;;;;;4976456;28;19920;-64
2023/10/18 05:56:29;;;;;;;;;;;6.80;99.90;;;;;;4976057;28;19910;-65
2023/10/18 06:01:40;;;;;;;;;;;6.80;99.90;;;;;;4975956;28;19917;-64
2023/10/18 06:04:05;;;;;;;;;;;6.90;99.90;;;;;;4974563;28;20359;-65
2023/10/18 06:06:30;;;;;;;;;;;6.90;99.90;;;;;;4976202;28;19910;-65
2023/10/18 06:08:57;;;;;;;;;;;6.90;99.90;;;;;;4975763;28;19914;-64
2023/10/18 06:11:23;;;;;;;;;;;7.00;99.90;;;;;;4975516;28;19910;-65
2023/10/18 06:13:49;;;;;;;;;;;7.00;99.90;;;;;;4974729;28;19925;-64
2023/10/18 06:16:20;;;;;;;;;;;7.00;99.90;;;;;;4975336;28;20019;-64
2023/10/18 06:18:46;;;;;;;;;;;7.00;99.90;;;;;;4975774;28;20336;-64
2023/10/18 06:21:18;;;;;;;;;;;7.00;99.90;;;;;;4975562;28;19910;-65
2023/10/18 06:23:54;;;;;;;;;;;7.00;99.90;;;;;;4975026;28;19968;-65
2023/10/18 06:26:28;;;;;;;;;;;7.00;99.90;;;;;;4974258;28;19933;-65
2023/10/18 06:29:00;;;;;;;;;;;7.10;99.90;;;;;;4974936;28;19918;-64
2023/10/18 06:31:29;;;;;;;;;;;7.10;99.90;;;;;;4976195;28;19915;-66
2023/10/18 06:34:03;;;;;;;;;;;7.10;99.90;;;;;;4976814;28;19918;-65
2023/10/18 06:36:32;;;;;;;;;;;7.10;99.90;;;;;;4976815;28;19910;-65
2023/10/18 06:38:58;;;;;;;;;;;7.10;99.90;;;;;;4976228;28;20420;-64
2023/10/18 06:41:29;;;;;;;;;;;7.10;99.90;;;;;;4975834;28;19910;-65
2023/10/18 06:43:55;;;;;;;;;;;7.10;99.90;;;;;;4974316;28;19964;-65
2023/10/18 06:46:26;;;;;;;;;;;7.20;99.90;;;;;;4975292;28;19973;-64
2023/10/18 06:48:55;;;;;;;;;;;7.20;99.90;;;;;;4975317;28;19910;-64
2023/10/18 06:51:43;;;;;;;;;;;7.20;99.90;;;;;;4975023;28;19917;-64
2023/10/18 06:54:13;;;;;;;;;;;7.20;99.90;;;;;;4974657;28;19993;-65
2023/10/18 06:56:48;;;;;;;;;;;7.20;99.90;;;;;;4975516;28;19917;-65
2023/10/18 06:59:13;;;;;;;;;;;7.30;99.90;;;;;;4974881;28;19917;-65
2023/10/18 07:01:41;;;;;;;;;;;7.30;99.90;;;;;;4975479;28;19910;-65
2023/10/18 07:04:19;;;;;;;;;;;7.40;99.90;;;;;;4974745;28;19921;-66
2023/10/18 07:06:44;;;;;;;;;;;7.40;99.90;;;;;;4974931;28;20294;-64
2023/10/18 07:09:25;;;;;;;;;;;7.40;99.90;;;;;;4974685;28;19910;-64
2023/10/18 07:11:57;;;;;;;;;;;7.40;99.90;;;;;;4975197;28;19964;-65
2023/10/18 07:14:25;;;;;;;;;;;7.50;99.90;;;;;;4974375;28;19922;-64
2023/10/18 07:16:54;;;;;;;;;;;7.60;99.90;;;;;;4974706;28;20388;-65
2023/10/18 07:19:26;;;;;;;;;;;7.60;99.90;;;;;;4974873;28;19956;-65
2023/10/18 07:21:52;;;;;;;;;;;7.70;99.90;;;;;;4974708;28;19910;-65
2023/10/18 07:24:18;;;;;;;;;;;7.70;99.90;;;;;;4974573;28;19996;-66
2023/10/18 07:26:46;;;;;;;;;;;7.80;99.90;;;;;;4974449;28;20304;-65
2023/10/18 07:29:13;;;;;;;;;;;7.80;99.90;;;;;;4974294;28;19914;-65
2023/10/18 07:31:39;;;;;;;;;;;7.90;99.90;;;;;;4974289;28;19914;-65
2023/10/18 07:34:07;;;;;;;;;;;8.00;99.90;;;;;;4974417;28;19917;-66
2023/10/18 07:36:37;;;;;;;;;;;8.00;99.90;;;;;;4974687;28;19910;-66
2023/10/18 07:39:04;;;;;;;;;;;8.10;99.90;;;;;;4974520;28;19910;-65
2023/10/18 07:41:30;;;;;;;;;;;8.20;99.90;;;;;;4975384;28;19910;-64
2023/10/18 07:43:57;;;;;;;;;;;8.30;99.90;;;;;;4978816;28;19925;-67
2023/10/18 07:46:25;;;;;;;;;;;8.40;99.90;;;;;;4979719;28;19910;-64
2023/10/18 07:48:53;;;;;;;;;;;8.40;99.90;;;;;;4974659;28;19917;-65
2023/10/18 07:51:26;;;;;;;;;;;8.40;99.90;;;;;;4974316;28;19918;-65
2023/10/18 07:53:55;;;;;;;;;;;8.40;99.90;;;;;;4974272;28;19965;-66
2023/10/18 07:56:27;;;;;;;;;;;8.50;99.90;;;;;;4977654;28;19917;-65
2023/10/18 07:58:53;;;;;;;;;;;8.50;99.90;;;;;;4977843;28;19918;-65
2023/10/18 08:04:04;;;;;;;;;;;8.60;99.90;;;;;;4977588;28;19921;-66
2023/10/18 08:06:33;;;;;;;;;;;8.60;99.90;;;;;;4977765;28;19910;-65
2023/10/18 08:09:03;;;;;;;;;;;8.70;99.90;;;;;;4977508;28;19917;-66
2023/10/18 08:11:32;;;;;;;;;;;8.70;99.90;;;;;;4977573;28;19935;-65
2023/10/18 08:13:57;;;;;;;;;;;8.70;99.90;;;;;;4977103;28;19945;-65
2023/10/18 08:16:27;;;;;;;;;;;8.70;99.90;;;;;;4977914;28;19910;-65
2023/10/18 08:18:53;;;;;;;;;;;8.70;99.90;;;;;;4978033;28;19911;-64
2023/10/18 08:21:40;;;;;;;;;;;8.80;99.90;;;;;;4977664;28;19910;-65
2023/10/18 08:24:08;;;;;;;;;;;8.80;99.90;;;;;;4977254;28;19954;-65
2023/10/18 08:26:47;;;;;;;;;;;8.90;99.90;;;;;;4977552;28;20007;-66
2023/10/18 08:29:13;;;;;;;;;;;9.00;99.90;;;;;;4977234;28;19910;-65
2023/10/18 08:31:38;;;;;;;;;;;9.20;99.90;;;;;;4977098;28;19984;-66
2023/10/18 08:34:15;;;;;;;;;;;9.30;99.90;;;;;;4977012;28;20027;-65
2023/10/18 08:36:43;;;;;;;;;;;9.50;99.90;;;;;;4977117;28;19992;-65
2023/10/18 08:39:09;;;;;;;;;;;9.60;99.90;;;;;;4977127;28;19918;-67
2023/10/18 08:41:37;;;;;;;;;;;9.70;99.90;;;;;;4977042;28;20301;-65
2023/10/18 08:44:16;;;;;;;;;;;9.90;99.90;;;;;;4976797;28;19922;-65
2023/10/18 08:46:51;;;;;;;;;;;10.00;99.90;;;;;;4976421;28;20402;-64
2023/10/18 08:49:21;;;;;;;;;;;10.20;99.90;;;;;;4977301;28;20000;-65
2023/10/18 08:51:54;;;;;;;;;;;10.40;99.90;;;;;;4976710;28;19911;-64
2023/10/18 08:54:22;;;;;;;;;;;10.40;99.90;;;;;;4977120;28;19917;-65
2023/10/18 08:56:48;;;;;;;;;;;10.60;99.90;;;;;;4976940;28;19925;-66
2023/10/18 08:59:19;;;;;;;;;;;10.80;99.90;;;;;;4976327;28;20001;-67
2023/10/18 09:04:32;;;;;;;;;;;11.10;99.90;;;;;;4976846;28;20444;-65
2023/10/18 09:06:59;;;;;;;;;;;11.20;99.90;;;;;;4976638;28;19954;-67
2023/10/18 09:09:26;;;;;;;;;;;11.20;99.90;;;;;;4976713;28;19910;-65
2023/10/18 09:11:52;;;;;;;;;;;11.30;99.90;;;;;;4976665;28;19910;-65
2023/10/18 09:14:17;;;;;;;;;;;11.30;99.90;;;;;;4975908;28;20061;-65
2023/10/18 09:16:46;;;;;;;;;;;11.40;99.90;;;;;;4975224;28;19917;-65
2023/10/18 09:19:12;;;;;;;;;;;11.40;99.90;;;;;;4976455;28;19961;-66
2023/10/18 09:21:56;;;;;;;;;;;11.60;99.90;;;;;;4976497;28;20412;-63
2023/10/18 09:24:30;;;;;;;;;;;11.70;99.90;;;;;;4976167;28;19921;-65
2023/10/18 09:26:57;;;;;;;;;;;11.80;99.90;;;;;;4976733;28;20285;-65
2023/10/18 09:29:25;;;;;;;;;;;11.80;99.90;;;;;;4974538;28;19910;-66
2023/10/18 09:32:04;;;;;;;;;;;11.80;99.90;;;;;;4976368;28;19918;-64
2023/10/18 09:34:38;;;;;;;;;;;11.90;99.90;;;;;;4976579;28;20340;-65
2023/10/18 09:37:12;;;;;;;;;;;12.00;99.90;;;;;;4976864;28;19911;-66
2023/10/18 09:39:38;;;;;;;;;;;12.20;99.90;;;;;;4975959;28;20389;-65
2023/10/18 09:42:04;;;;;;;;;;;12.30;99.90;;;;;;4977526;28;19914;-66
2023/10/18 09:44:30;;;;;;;;;;;12.50;99.90;;;;;;4977579;28;19910;-66
2023/10/18 09:46:55;;;;;;;;;;;13.10;99.90;;;;;;4976960;28;19913;-66
2023/10/18 09:49:24;;;;;;;;;;;13.30;99.90;;;;;;4977241;28;19933;-66
2023/10/18 09:51:53;;;;;;;;;;;13.30;99.90;;;;;;4977120;28;19910;-65
2023/10/18 09:54:21;;;;;;;;;;;13.00;99.90;;;;;;4976569;28;19911;-65
2023/10/18 09:56:48;;;;;;;;;;;12.90;99.90;;;;;;4975846;28;19914;-65
2023/10/18 09:59:25;;;;;;;;;;;12.80;99.90;;;;;;4975556;28;19910;-65
2023/10/18 10:02:00;;;;;;;;;;;12.80;99.90;;;;;;4975860;28;19911;-64
2023/10/18 10:04:32;;;;;;;;;;;12.80;99.90;;;;;;4975349;28;20381;-65
2023/10/18 10:07:27;;;;;;;;;;;12.80;99.90;;;;;;4975698;28;19997;-65
2023/10/18 10:09:46;;;;;;;;;;;12.80;99.90;;;;;;4975294;28;20145;-67
2023/10/18 10:12:14;;;;;;;;;;;12.80;99.90;;;;;;4975343;28;20005;-66
2023/10/18 10:14:40;;;;;;;;;;;12.80;99.90;;;;;;4975018;28;19927;-64
2023/10/18 10:17:14;;;;;;;;;;;12.70;99.90;;;;;;4974742;28;20006;-66
2023/10/18 10:19:48;;;;;;;;;;;12.70;99.90;;;;;;4974033;28;19910;-65
2023/10/18 10:22:15;;;;;;;;;;;12.90;99.90;;;;;;4975143;28;19996;-65
2023/10/18 10:24:50;;;;;;;;;;;12.80;99.90;;;;;;4975394;28;20022;-65
2023/10/18 10:27:27;;;;;;;;;;;12.80;99.90;;;;;;4974111;28;19953;-66
2023/10/18 10:30:03;;;;;;;;;;;12.80;99.90;;;;;;4975786;28;19910;-66
2023/10/18 10:32:32;;;;;;;;;;;12.90;99.90;;;;;;4975059;28;19933;-65
2023/10/18 10:35:14;;;;;;;;;;;13.00;99.90;;;;;;4975119;28;19957;-65
2023/10/18 10:37:46;;;;;;;;;;;13.00;99.90;;;;;;4975222;28;19916;-65
2023/10/18 10:43:02;;;;;;;;;;;12.90;99.90;;;;;;4974995;28;19918;-65
2023/10/18 10:45:30;;;;;;;;;;;12.80;99.90;;;;;;4974473;28;20000;-65
2023/10/18 10:47:57;;;;;;;;;;;12.70;99.90;;;;;;4976086;28;20068;-65
2023/10/18 10:50:42;;;;;;;;;;;12.60;99.90;;;;;;4980958;28;19949;-64
2023/10/18 10:53:08;;;;;;;;;;;12.60;99.90;;;;;;4980019;28;19910;-66
2023/10/18 10:55:34;;;;;;;;;;;12.50;99.90;;;;;;4975290;28;20440;-65
2023/10/18 10:58:15;;;;;;;;;;;12.50;99.90;;;;;;4975108;28;19950;-64
2023/10/18 11:00:59;;;;;;;;;;;12.40;99.90;;;;;;4974840;28;19910;-65
2023/10/18 11:03:52;;;;;;;;;;;12.30;99.90;;;;;;4973563;28;19920;-65
2023/10/18 11:06:22;;;;;;;;;;;12.40;99.90;;;;;;4975294;28;19910;-65
2023/10/18 11:08:49;;;;;;;;;;;12.40;99.90;;;;;;4974992;28;20459;-64
2023/10/18 11:11:15;;;;;;;;;;;12.50;99.90;;;;;;4974884;28;19997;-65
2023/10/18 11:13:41;;;;;;;;;;;12.40;99.90;;;;;;4974528;28;19968;-65
2023/10/18 11:16:07;;;;;;;;;;;12.40;99.90;;;;;;4975665;28;19914;-65
2023/10/18 11:18:35;;;;;;;;;;;12.50;99.90;;;;;;4974959;28;20001;-64
2023/10/18 11:21:05;;;;;;;;;;;12.50;99.90;;;;;;4974949;28;19910;-65
2023/10/18 11:23:33;;;;;;;;;;;12.70;99.90;;;;;;4975038;28;19949;-64
2023/10/18 11:25:59;;;;;;;;;;;12.80;99.90;;;;;;4975026;28;19911;-65
2023/10/18 11:28:31;;;;;;;;;;;12.90;99.90;;;;;;4974764;28;19911;-65
2023/10/18 11:30:57;;;;;;;;;;;13.10;99.90;;;;;;4978394;28;19927;-64
2023/10/18 11:33:35;;;;;;;;;;;13.30;99.90;;;;;;4979138;28;19917;-66
2023/10/18 11:36:02;;;;;;;;;;;13.40;99.90;;;;;;4979019;28;19921;-64
2023/10/18 11:38:31;;;;;;;;;;;13.50;99.90;;;;;;4979883;28;19922;-65
2023/10/18 11:41:04;;;;;;;;;;;13.60;99.90;;;;;;4979925;28;19910;-64
2023/10/18 11:43:38;;;;;;;;;;;13.60;99.90;;;;;;4979367;28;20001;-65
2023/10/18 11:46:05;;;;;;;;;;;13.70;99.90;;;;;;4978773;28;19956;-65
2023/10/18 11:48:32;;;;;;;;;;;13.70;99.90;;;;;;4978354;28;19923;-66
2023/10/18 11:50:58;;;;;;;;;;;13.70;99.90;;;;;;4978134;28;19910;-64
2023/10/18 11:53:26;;;;;;;;;;;13.70;99.90;;;;;;4978714;28;19960;-66
2023/10/18 11:55:52;;;;;;;;;;;13.60;99.90;;;;;;4979601;28;19921;-65
2023/10/18 11:58:19;;;;;;;;;;;13.60;99.90;;;;;;4979040;28;19914;-66
2023/10/18 12:00:47;;;;;;;;;;;13.60;99.90;;;;;;4978762;28;20292;-66
2023/10/18 12:03:13;;;;;;;;;;;13.70;99.90;;;;;;4978289;28;20380;-65
2023/10/18 12:05:42;;;;;;;;;;;13.70;99.90;;;;;;4977958;28;19921;-64
2023/10/18 12:08:12;;;;;;;;;;;13.80;99.90;;;;;;4977711;28;20051;-65
2023/10/18 12:10:38;;;;;;;;;;;13.80;99.90;;;;;;4977787;28;19981;-64
2023/10/18 12:13:06;;;;;;;;;;;13.80;99.90;;;;;;4977829;28;20321;-66
2023/10/18 12:15:32;;;;;;;;;;;13.80;99.90;;;;;;4977613;28;19993;-64
2023/10/18 12:18:01;;;;;;;;;;;13.90;99.90;;;;;;4977476;28;20337;-65
2023/10/18 12:20:34;;;;;;;;;;;13.80;99.90;;;;;;4977686;28;19914;-66
2023/10/18 12:23:04;;;;;;;;;;;13.90;99.90;;;;;;4977105;28;19922;-65
2023/10/18 12:25:32;;;;;;;;;;;14.00;99.90;;;;;;4977066;28;19910;-63
2023/10/18 12:28:00;;;;;;;;;;;14.10;99.90;;;;;;4975585;28;19921;-64
2023/10/18 12:30:34;;;;;;;;;;;14.30;99.90;;;;;;4977347;28;19910;-65
2023/10/18 12:33:04;;;;;;;;;;;14.40;99.90;;;;;;4977396;28;20415;-65
2023/10/18 12:35:30;;;;;;;;;;;14.50;99.90;;;;;;4977896;28;19910;-65
2023/10/18 12:37:55;;;;;;;;;;;14.50;99.90;;;;;;4977258;28;20389;-61
2023/10/18 12:40:41;;;;;;;;;;;14.40;99.90;;;;;;4977232;28;19961;-64
2023/10/18 12:43:17;;;;;;;;;;;14.40;99.90;;;;;;4977531;28;19918;-65
2023/10/18 12:45:45;;;;;;;;;;;14.30;99.90;;;;;;4976046;28;20310;-65
2023/10/18 12:48:11;;;;;;;;;;;14.20;99.90;;;;;;4976006;28;19922;-64
2023/10/18 12:50:38;;;;;;;;;;;14.10;99.90;;;;;;4976780;28;19914;-65
2023/10/18 12:55:57;;;;;;;;;;;14.00;99.90;;;;;;4977315;28;20361;-65
2023/10/18 12:58:28;;;;;;;;;;;14.00;99.90;;;;;;4977370;28;19910;-65
2023/10/18 13:01:08;;;;;;;;;;;13.90;99.90;;;;;;4975561;28;19910;-64
2023/10/18 13:03:37;;;;;;;;;;;13.90;99.90;;;;;;4976623;28;19915;-64
2023/10/18 13:06:07;;;;;;;;;;;13.90;99.90;;;;;;4977141;28;19917;-64
2023/10/18 13:08:37;;;;;;;;;;;13.90;99.90;;;;;;4976139;28;20027;-65
2023/10/18 13:13:30;;;;;;;;;;;13.60;99.90;;;;;;4979282;28;20277;-66
2023/10/18 13:15:59;;;;;;;;;;;13.60;99.90;;;;;;4977822;28;19965;-64
2023/10/18 13:18:27;;;;;;;;;;;13.50;99.90;;;;;;4975485;28;20001;-66
2023/10/18 13:20:55;;;;;;;;;;;13.40;99.90;;;;;;4976867;28;19910;-64
2023/10/18 13:23:21;;;;;;;;;;;13.30;99.90;;;;;;4976403;28;19918;-65
2023/10/18 13:25:51;;;;;;;;;;;13.30;99.90;;;;;;4976425;28;19914;-64
2023/10/18 13:28:24;;;;;;;;;;;13.30;99.90;;;;;;4976264;28;20297;-65
2023/10/18 13:30:51;;;;;;;;;;;13.30;99.90;;;;;;4976290;28;20009;-65
2023/10/18 13:33:18;;;;;;;;;;;13.30;99.90;;;;;;4976167;28;19914;-65
2023/10/18 13:35:44;;;;;;;;;;;13.30;99.90;;;;;;4976399;28;20006;-65
2023/10/18 13:38:10;;;;;;;;;;;13.30;99.90;;;;;;4976919;28;19910;-65
2023/10/18 13:40:38;;;;;;;;;;;13.30;99.90;;;;;;4976651;28;19910;-65
2023/10/18 13:43:04;;;;;;;;;;;13.30;99.90;;;;;;4976635;28;19915;-64
2023/10/18 13:45:33;;;;;;;;;;;13.20;99.90;;;;;;4977509;28;19910;-64
2023/10/18 13:47:59;;;;;;;;;;;13.30;99.90;;;;;;4976289;28;19917;-65
2023/10/18 13:50:25;;;;;;;;;;;13.30;99.90;;;;;;4976428;28;19910;-65
2023/10/18 13:52:50;;;;;;;;;;;13.30;99.90;;;;;;4977195;28;19910;-65
2023/10/18 13:55:18;;;;;;;;;;;13.30;99.90;;;;;;4977676;28;20025;-65
2023/10/18 13:57:45;;;;;;;;;;;13.40;99.90;;;;;;4976982;28;20211;-64
2023/10/18 14:00:14;;;;;;;;;;;13.40;99.90;;;;;;4976230;28;19918;-64
2023/10/18 14:02:43;;;;;;;;;;;13.50;99.90;;;;;;4974494;28;19915;-64
2023/10/18 14:05:08;;;;;;;;;;;13.50;99.90;;;;;;4975664;28;20005;-64
2023/10/18 14:07:35;;;;;;;;;;;13.50;99.90;;;;;;4975721;28;20364;-65
2023/10/18 14:10:15;;;;;;;;;;;13.50;99.90;;;;;;4975218;28;19917;-64
2023/10/18 14:12:41;;;;;;;;;;;13.50;99.90;;;;;;4975413;28;19917;-62
2023/10/18 14:15:06;;;;;;;;;;;13.50;99.90;;;;;;4974764;28;20279;-64
2023/10/18 14:17:32;;;;;;;;;;;13.50;99.90;;;;;;4975378;28;19910;-61
2023/10/18 14:19:58;;;;;;;;;;;13.50;99.90;;;;;;4975159;28;20073;-63
2023/10/18 14:22:27;;;;;;;;;;;13.60;99.90;;;;;;4973820;28;20462;-64
2023/10/18 14:24:53;;;;;;;;;;;13.60;99.90;;;;;;4975191;28;19910;-62
2023/10/18 14:27:18;;;;;;;;;;;13.60;99.90;;;;;;4963436;28;19922;-64
2023/10/18 14:29:46;;;;;;;;;;;13.70;99.90;;;;;;4955721;28;20294;-62
2023/10/18 14:32:11;;;;;;;;;;;13.60;99.90;;;;;;4955523;28;19920;-62
2023/10/18 14:34:38;;;;;;;;;;;13.60;99.90;;;;;;4955841;28;19911;-64
2023/10/18 14:37:04;;;;;;;;;;;13.40;99.90;;;;;;4954555;28;20380;-63
2023/10/18 14:39:29;;;;;;;;;;;13.40;99.90;;;;;;4955744;28;19911;-64
2023/10/18 14:41:55;;;;;;;;;;;13.40;99.90;;;;;;4955771;28;20281;-65
2023/10/18 14:44:20;;;;;;;;;;;13.50;99.90;;;;;;4955610;28;19962;-66
2023/10/18 14:46:46;;;;;;;;;;;13.40;99.90;;;;;;4955678;28;19921;-64
2023/10/18 14:49:13;;;;;;;;;;;13.50;99.90;;;;;;4955733;28;20258;-66
2023/10/18 14:51:43;;;;;;;;;;;13.50;99.90;;;;;;4961132;28;19910;-66
2023/10/18 14:54:09;;;;;;;;;;;13.60;99.90;;;;;;4962953;28;20057;-64
2023/10/18 14:56:34;;;;;;;;;;;13.60;99.90;;;;;;4955546;28;20390;-66
2023/10/18 14:59:00;;;;;;;;;;;13.50;99.90;;;;;;4955710;28;19917;-67
2023/10/18 15:01:26;;;;;;;;;;;13.60;99.90;;;;;;4955315;28;19910;-63
2023/10/18 15:03:51;;;;;;;;;;;13.60;99.90;;;;;;4957342;28;20018;-64
2023/10/18 15:06:17;;;;;;;;;;;13.70;99.90;;;;;;4959425;28;19994;-67
2023/10/18 15:08:43;;;;;;;;;;;13.70;99.90;;;;;;4959612;28;19918;-66
2023/10/18 15:11:13;;;;;;;;;;;13.80;99.90;;;;;;4958065;28;19965;-66
2023/10/18 15:13:39;;;;;;;;;;;13.80;99.90;;;;;;4962911;28;19914;-65
2023/10/18 15:16:05;;;;;;;;;;;13.80;99.90;;;;;;4978539;28;19910;-69
2023/10/18 15:18:31;;;;;;;;;;;13.80;99.90;;;;;;4978805;28;20448;-68
2023/10/18 15:20:57;;;;;;;;;;;13.70;99.90;;;;;;4978338;28;20008;-66
2023/10/18 15:23:26;;;;;;;;;;;13.70;99.90;;;;;;4978660;28;19964;-68
2023/10/18 15:25:52;;;;;;;;;;;13.60;99.90;;;;;;4978348;28;19964;-66
2023/10/18 15:28:17;;;;;;;;;;;13.60;99.90;;;;;;4978418;28;19913;-67
2023/10/18 15:30:43;;;;;;;;;;;13.70;99.90;;;;;;4978295;28;19918;-64
2023/10/18 15:33:09;;;;;;;;;;;13.70;99.90;;;;;;4978860;28;19933;-67
2023/10/18 15:35:35;;;;;;;;;;;13.70;99.90;;;;;;4978289;28;19910;-66
2023/10/18 15:38:00;;;;;;;;;;;13.70;99.90;;;;;;4978271;28;19911;-67
2023/10/18 15:40:29;;;;;;;;;;;13.70;99.90;;;;;;4978919;28;19945;-67
2023/10/18 15:42:54;;;;;;;;;;;13.70;99.90;;;;;;4978818;28;19914;-67
2023/10/18 15:45:20;;;;;;;;;;;13.70;99.90;;;;;;4977646;28;19910;-67
2023/10/18 15:47:45;;;;;;;;;;;13.70;99.90;;;;;;4977811;28;20391;-67
2023/10/18 15:50:11;;;;;;;;;;;13.60;99.90;;;;;;4978410;28;19910;-66
2023/10/18 15:52:37;;;;;;;;;;;13.70;99.90;;;;;;4978231;28;19918;-66
2023/10/18 15:55:14;;;;;;;;;;;13.80;99.90;;;;;;4977819;28;19910;-67
2023/10/18 15:57:45;;;;;;;;;;;14.00;99.90;;;;;;4978851;28;20005;-68
2023/10/18 16:00:21;;;;;;;;;;;14.00;99.90;;;;;;4978025;28;20001;-65
2023/10/18 16:02:50;;;;;;;;;;;14.00;99.90;;;;;;4978085;28;19918;-66
2023/10/18 16:05:24;;;;;;;;;;;13.80;99.90;;;;;;4976436;28;19914;-63
2023/10/18 16:07:52;;;;;;;;;;;13.50;99.90;;;;;;4978183;28;19910;-65
2023/10/18 16:10:18;;;;;;;;;;;13.20;99.90;;;;;;4978369;28;19911;-68
2023/10/18 16:12:47;;;;;;;;;;;13.00;99.90;;;;;;4979017;28;19916;-63
2023/10/18 16:15:14;;;;;;;;;;;12.80;99.90;;;;;;4977080;28;20310;-65
2023/10/18 16:17:40;;;;;;;;;;;12.70;99.90;;;;;;4978144;28;20289;-69
2023/10/18 16:20:05;;;;;;;;;;;12.50;99.90;;;;;;4978323;28;19910;-68
2023/10/18 16:22:31;;;;;;;;;;;12.40;99.90;;;;;;4977816;28;19910;-68
2023/10/18 16:24:57;;;;;;;;;;;12.40;99.90;;;;;;4977937;28;19915;-68
2023/10/18 16:27:22;;;;;;;;;;;12.30;99.90;;;;;;4978731;28;19934;-69
2023/10/18 16:29:49;;;;;;;;;;;12.20;99.90;;;;;;4977862;28;19910;-65
2023/10/18 16:32:15;;;;;;;;;;;12.20;99.90;;;;;;4977725;28;19912;-65
2023/10/18 16:34:40;;;;;;;;;;;12.30;99.90;;;;;;4978109;28;19911;-70
2023/10/18 16:37:06;;;;;;;;;;;12.40;99.90;;;;;;4977871;28;19914;-69
2023/10/18 16:39:31;;;;;;;;;;;12.30;99.90;;;;;;4977952;28;19914;-70
2023/10/18 16:41:56;;;;;;;;;;;12.30;99.90;;;;;;4978835;28;19921;-70
2023/10/18 16:44:22;;;;;;;;;;;12.20;99.90;;;;;;4978197;28;19914;-69
2023/10/18 16:46:50;;;;;;;;;;;12.10;99.90;;;;;;4977871;28;20321;-70
2023/10/18 16:49:16;;;;;;;;;;;12.10;99.90;;;;;;4977916;28;20398;-69
2023/10/18 16:51:42;;;;;;;;;;;11.90;99.90;;;;;;4978938;28;19910;-70
2023/10/18 16:54:07;;;;;;;;;;;11.90;99.90;;;;;;4979114;28;19917;-70
2023/10/18 16:56:33;;;;;;;;;;;12.00;99.90;;;;;;4981031;28;19910;-69
2023/10/18 16:58:59;;;;;;;;;;;12.00;99.90;;;;;;4980551;28;19910;-69
2023/10/18 17:01:25;;;;;;;;;;;12.00;99.90;;;;;;4979203;28;19912;-68
2023/10/18 17:03:51;;;;;;;;;;;12.00;99.90;;;;;;4976402;28;19918;-68
2023/10/18 17:06:16;;;;;;;;;;;11.90;99.90;;;;;;4977866;28;20182;-66
2023/10/18 17:08:43;;;;;;;;;;;12.00;99.90;;;;;;4977331;28;20020;-68
2023/10/18 17:11:09;;;;;;;;;;;11.90;99.90;;;;;;4975336;28;19911;-67
2023/10/18 17:13:36;;;;;;;;;;;12.10;99.90;;;;;;4975857;28;19918;-67
2023/10/18 17:16:02;;;;;;;;;;;12.20;99.90;;;;;;4976628;28;19910;-69
2023/10/18 17:18:27;;;;;;;;;;;12.00;99.90;;;;;;4976634;28;19921;-70
2023/10/18 17:20:52;;;;;;;;;;;12.10;99.90;;;;;;4976607;28;19918;-69
2023/10/18 17:23:22;;;;;;;;;;;12.00;99.90;;;;;;4976263;28;19914;-69
2023/10/18 17:25:47;;;;;;;;;;;11.90;99.90;;;;;;4976242;28;19949;-67
2023/10/18 17:28:13;;;;;;;;;;;11.80;99.90;;;;;;4974824;28;19910;-69
2023/10/18 17:30:39;;;;;;;;;;;11.70;99.90;;;;;;4976102;28;19940;-68
2023/10/18 17:33:08;;;;;;;;;;;11.70;99.90;;;;;;4974827;28;19910;-68
2023/10/18 17:35:36;;;;;;;;;;;11.70;99.90;;;;;;4975907;28;20352;-69
2023/10/18 17:38:03;;;;;;;;;;;11.50;99.90;;;;;;4977010;28;19910;-67
2023/10/18 17:40:28;;;;;;;;;;;11.30;99.90;;;;;;4976968;28;20001;-69
2023/10/18 17:42:54;;;;;;;;;;;11.20;99.90;;;;;;4976694;28;20049;-70
2023/10/18 17:45:23;;;;;;;;;;;11.10;99.90;;;;;;4975745;28;19910;-67
2023/10/18 17:47:48;;;;;;;;;;;11.10;99.90;;;;;;4976585;28;19911;-67
2023/10/18 17:50:17;;;;;;;;;;;11.10;99.90;;;;;;4976947;28;19988;-67
2023/10/18 17:52:47;;;;;;;;;;;11.00;99.90;;;;;;4976562;28;20406;-69
2023/10/18 17:55:16;;;;;;;;;;;10.90;99.90;;;;;;4977495;28;20325;-69
2023/10/18 17:57:42;;;;;;;;;;;10.90;99.90;;;;;;4976735;28;19910;-68
2023/10/18 18:00:19;;;;;;;;;;;10.90;99.90;;;;;;4976703;28;19932;-69
2023/10/18 18:02:46;;;;;;;;;;;10.80;99.90;;;;;;4974428;28;20388;-64
2023/10/18 18:05:15;;;;;;;;;;;10.90;99.90;;;;;;4974777;28;20261;-64
2023/10/18 18:07:40;;;;;;;;;;;10.90;99.90;;;;;;4974038;28;19968;-68
2023/10/18 18:10:08;;;;;;;;;;;10.90;99.90;;;;;;4976170;28;19910;-69
2023/10/18 18:12:35;;;;;;;;;;;11.00;99.90;;;;;;4976412;28;19914;-67
2023/10/18 18:15:11;;;;;;;;;;;11.00;99.90;;;;;;4974502;28;19918;-68
2023/10/18 18:17:37;;;;;;;;;;;11.00;99.90;;;;;;4975507;28;19914;-68
2023/10/18 18:20:07;;;;;;;;;;;11.00;99.90;;;;;;4976097;28;20026;-69
2023/10/18 18:22:33;;;;;;;;;;;11.00;99.90;;;;;;4975764;28;19910;-69
2023/10/18 18:24:59;;;;;;;;;;;11.00;99.90;;;;;;4975247;28;19964;-67
2023/10/18 18:27:24;;;;;;;;;;;11.00;99.90;;;;;;4974528;28;19918;-69
2023/10/18 18:29:51;;;;;;;;;;;11.10;99.90;;;;;;4975272;28;19910;-69
2023/10/18 18:32:18;;;;;;;;;;;11.10;99.90;;;;;;4975190;28;19910;-70
2023/10/18 18:34:44;;;;;;;;;;;11.30;99.90;;;;;;4975162;28;19917;-68
2023/10/18 18:37:09;;;;;;;;;;;11.20;99.90;;;;;;4975368;28;19910;-70
2023/10/18 18:39:35;;;;;;;;;;;11.20;99.90;;;;;;4975167;28;19910;-69
2023/10/18 18:42:02;;;;;;;;;;;11.20;99.90;;;;;;4975543;28;19914;-69
2023/10/18 18:44:30;;;;;;;;;;;11.20;99.90;;;;;;4975375;28;19918;-69
2023/10/18 18:46:57;;;;;;;;;;;11.10;99.90;;;;;;4976469;28;19957;-64
2023/10/18 18:49:23;;;;;;;;;;;11.10;99.90;;;;;;4974779;28;19917;-68
2023/10/18 18:51:48;;;;;;;;;;;11.00;99.90;;;;;;4975134;28;19911;-68
2023/10/18 18:54:13;;;;;;;;;;;11.00;99.90;;;;;;4975254;28;19961;-68
2023/10/18 18:56:39;;;;;;;;;;;10.90;99.90;;;;;;4976172;28;19961;-69
2023/10/18 18:59:04;;;;;;;;;;;10.90;99.90;;;;;;4976162;28;19912;-68
2023/10/18 19:01:30;;;;;;;;;;;10.80;99.90;;;;;;4975456;28;19957;-69
2023/10/18 19:03:55;;;;;;;;;;;10.80;99.90;;;;;;4974688;28;19922;-68
2023/10/18 19:06:21;;;;;;;;;;;10.80;99.90;;;;;;4975323;28;20342;-67